Aeroporto :
LOGIN :

Iscrizione | Disclaimer

   EN    FR    IT 

 










Sommario :    VFR   VFR Marginale   IFR   IFR Intensivo   IFR Molto Intensivo
Visibilità : 
Base nubi : 
>= 8 km
>= 3000ft
5 / 8 km
1000 / 3000 ft
1500m / 5 km
500 / 1000 ft
800 / 1500m
200 / 500 ft
< 800m
< 200 ft
Simboli :   Temporali  Nebbia  Neve Forte  Precipitazioni Forti  Vento > 20 kt
SIGMETs :   Varie  Temporali  Ghiacco  Turbolenza  Onda orograficha  Ceneri Vulcaniche






- Altitudine del aeroporto : 195 ft


LFMY - Salon de Provence

ULTIMO METAR :
  • 211600Z AUTO 32020G32KT CAVOK 14/M02 Q1024 NOSIG

METARs OBSOLETI :
  • 211530Z AUTO 33020G31KT CAVOK 15/M01 Q1025 NOSIG
  • 211500Z AUTO 33020G32KT CAVOK 15/00 Q1025 NOSIG
  • 211430Z AUTO 32018KT 280V340 CAVOK 15/01 Q1025 BECMG 33015G25KT
  • 211400Z AUTO 32023KT CAVOK 14/01 Q1025 BECMG 33015G25KT
  • 211330Z AUTO 32018G29KT 280V350 CAVOK 15/02 Q1025 NOSIG

TAF TAF LFMY
Valido dal 21 a 15 ore il 22 a 15 ore UTC


211400Z 2115/2215 33015KT CAVOK
TEMPO 2115/2118 33020G30KT
BECMG 2201/2203 VRB03KT
BECMG 2211/2213 20010KT



MetMap, La meteo Aeronautica in un colpo d'occhio ! - Copyright ORBIFLY Dicembre 2007 - Disclaimer

ORBIFLY MET'MAP TEAM :

Programmazione e sviluppo : Alexandra Zaïnal
Concezione : Baudouin d'Aumeries
Aiuto per la programmazione : Marc-Olivier Méhu
Supporto tecnico e logistico : Manuel Goepfert
Aiuto per la traduzione : Arnaldo La Scala

Contatto : metmap@orbifly.com




FONTI E CREDITI :

   NOAA